createdAt,value
2022-09-10T00:02:26.827Z,100.00
2022-09-10T00:08:34.785Z,100.00
2022-09-10T00:11:07.048Z,100.00
2022-09-10T00:13:44.032Z,100.00
2022-09-10T00:16:16.709Z,100.00
2022-09-10T00:18:52.294Z,100.00
2022-09-10T00:22:01.340Z,100.00
2022-09-10T00:24:45.792Z,100.00
2022-09-10T00:27:29.286Z,100.00
2022-09-10T00:29:56.462Z,100.00
2022-09-10T00:32:53.015Z,100.00
2022-09-10T00:35:21.643Z,100.00
2022-09-10T00:38:22.543Z,100.00
2022-09-10T00:40:50.649Z,100.00
2022-09-10T00:44:00.158Z,100.00
2022-09-10T00:47:02.156Z,100.00
2022-09-10T00:53:15.970Z,100.00
2022-09-10T00:56:02.888Z,100.00
2022-09-10T00:58:35.992Z,100.00
2022-09-10T01:01:04.360Z,100.00
2022-09-10T01:03:35.937Z,100.00
2022-09-10T01:06:35.095Z,100.00
2022-09-10T01:09:09.965Z,100.00
2022-09-10T01:12:16.253Z,100.00
2022-09-10T01:15:24.930Z,100.00
2022-09-10T01:18:19.728Z,100.00
2022-09-10T01:20:59.692Z,100.00
2022-09-10T01:23:58.635Z,100.00
2022-09-10T01:27:03.020Z,100.00
2022-09-10T01:29:50.227Z,100.00
2022-09-10T01:32:34.067Z,100.00
2022-09-10T01:35:21.379Z,100.00
2022-09-10T01:38:04.970Z,100.00
2022-09-10T01:41:19.621Z,100.00
2022-09-10T01:44:42.602Z,100.00
2022-09-10T01:47:28.124Z,100.00
2022-09-10T01:50:15.233Z,100.00
2022-09-10T01:52:45.250Z,100.00
2022-09-10T01:55:35.251Z,100.00
2022-09-10T01:58:13.575Z,100.00
2022-09-10T02:01:08.894Z,100.00
2022-09-10T02:03:38.854Z,100.00
2022-09-10T02:06:09.777Z,100.00
2022-09-10T02:08:41.293Z,100.00
2022-09-10T02:11:19.566Z,100.00
2022-09-10T02:14:24.687Z,100.00
2022-09-10T02:17:31.452Z,100.00
2022-09-10T02:20:10.056Z,100.00
2022-09-10T02:22:59.098Z,100.00
2022-09-10T02:25:45.890Z,100.00
2022-09-10T02:28:43.997Z,100.00
2022-09-10T02:31:10.995Z,100.00
2022-09-10T02:33:40.105Z,100.00
2022-09-10T02:36:31.982Z,100.00
2022-09-10T02:39:12.918Z,100.00
2022-09-10T02:41:42.981Z,100.00
2022-09-10T02:44:30.103Z,100.00
2022-09-10T02:47:10.661Z,100.00
2022-09-10T02:50:02.492Z,100.00
2022-09-10T02:52:36.283Z,100.00
2022-09-10T02:58:49.208Z,100.00
2022-09-10T03:01:24.751Z,100.00
2022-09-10T03:03:59.792Z,100.00
2022-09-10T03:06:57.045Z,100.00
2022-09-10T03:09:33.019Z,100.00
2022-09-10T03:12:16.144Z,100.00
2022-09-10T03:18:32.895Z,100.00
2022-09-10T03:21:15.459Z,100.00
2022-09-10T03:23:56.954Z,100.00
2022-09-10T03:26:33.910Z,100.00
2022-09-10T03:29:01.876Z,100.00
2022-09-10T03:32:01.492Z,100.00
2022-09-10T03:35:27.703Z,100.00
2022-09-10T03:38:11.631Z,100.00
2022-09-10T03:40:39.818Z,100.00
2022-09-10T03:43:13.413Z,100.00
2022-09-10T03:45:44.028Z,100.00
2022-09-10T03:48:23.637Z,100.00
2022-09-10T03:51:39.310Z,100.00
2022-09-10T03:54:23.567Z,100.00
2022-09-10T03:57:03.482Z,100.00
2022-09-10T03:59:42.907Z,100.00
2022-09-10T04:02:17.555Z,100.00
2022-09-10T04:05:25.909Z,100.00
2022-09-10T04:08:02.889Z,100.00
2022-09-10T04:10:40.933Z,100.00
2022-09-10T04:13:14.391Z,100.00
2022-09-10T04:15:54.352Z,100.00
2022-09-10T04:18:38.675Z,100.00
2022-09-10T04:21:10.137Z,100.00
2022-09-10T04:23:37.308Z,100.00
2022-09-10T04:26:42.969Z,100.00
2022-09-10T04:29:19.330Z,100.00
2022-09-10T04:31:51.173Z,100.00
2022-09-10T04:34:27.329Z,100.00
2022-09-10T04:37:19.622Z,100.00
2022-09-10T04:40:05.598Z,100.00
2022-09-10T04:42:33.777Z,100.00
2022-09-10T04:45:09.970Z,100.00
2022-09-10T04:48:24.345Z,100.00
2022-09-10T04:51:24.324Z,100.00
2022-09-10T04:54:13.821Z,100.00
2022-09-10T04:56:50.004Z,100.00
2022-09-10T04:59:25.367Z,100.00
2022-09-10T05:01:58.154Z,100.00
2022-09-10T05:04:26.174Z,100.00
2022-09-10T05:07:06.564Z,100.00
2022-09-10T05:09:34.154Z,100.00
2022-09-10T05:12:03.811Z,100.00
2022-09-10T05:15:10.225Z,100.00
2022-09-10T05:18:08.301Z,100.00
2022-09-10T05:21:13.243Z,100.00
2022-09-10T05:23:49.427Z,100.00
2022-09-10T05:26:24.890Z,100.00
2022-09-10T05:29:00.426Z,100.00
2022-09-10T05:31:37.830Z,100.00
2022-09-10T05:34:05.857Z,100.00
2022-09-10T05:36:33.109Z,100.00
2022-09-10T05:39:00.977Z,100.00
2022-09-10T05:41:30.484Z,100.00
2022-09-10T05:43:57.989Z,100.00
2022-09-10T05:46:25.386Z,100.00
2022-09-10T05:48:55.512Z,100.00
2022-09-10T05:51:46.798Z,100.00
2022-09-10T05:54:13.822Z,100.00
2022-09-10T05:56:41.948Z,100.00
2022-09-10T05:59:24.215Z,100.00
2022-09-10T06:01:58.633Z,100.00
2022-09-10T06:04:27.421Z,100.00
2022-09-10T06:06:54.564Z,100.00
2022-09-10T06:09:27.769Z,100.00
2022-09-10T06:11:55.915Z,100.00
2022-09-10T06:14:23.210Z,100.00
2022-09-10T06:16:50.213Z,100.00
2022-09-10T06:19:18.483Z,100.00
2022-09-10T06:21:47.070Z,100.00
2022-09-10T06:24:15.398Z,100.00
2022-09-10T06:26:47.982Z,100.00
2022-09-10T06:29:15.291Z,100.00
2022-09-10T06:31:43.295Z,100.00
2022-09-10T06:34:10.774Z,100.00
2022-09-10T06:36:48.036Z,100.00
2022-09-10T06:39:20.406Z,100.00
2022-09-10T06:41:49.733Z,100.00
2022-09-10T06:44:22.612Z,100.00
2022-09-10T06:47:32.442Z,100.00
2022-09-10T06:49:43.820Z,100.00
2022-09-10T06:52:19.152Z,100.00
2022-09-10T06:54:51.683Z,100.00
2022-09-10T06:57:19.896Z,100.00
2022-09-10T06:59:49.052Z,100.00
2022-09-10T07:02:18.298Z,100.00
2022-09-10T07:04:45.728Z,100.00
2022-09-10T07:07:20.452Z,100.00
2022-09-10T07:09:48.406Z,100.00
2022-09-10T07:12:15.533Z,100.00
2022-09-10T07:14:43.384Z,100.00
2022-09-10T07:17:17.521Z,100.00
2022-09-10T07:19:46.314Z,100.00
2022-09-10T07:22:19.265Z,100.00
2022-09-10T07:24:49.686Z,100.00
2022-09-10T07:27:30.760Z,100.00
2022-09-10T07:30:01.342Z,100.00
2022-09-10T07:32:29.833Z,100.00
2022-09-10T07:34:58.074Z,100.00
2022-09-10T07:37:26.217Z,100.00
2022-09-10T07:40:08.312Z,100.00
2022-09-10T07:42:37.627Z,99.50
2022-09-10T07:45:06.046Z,100.00
2022-09-10T07:47:33.617Z,100.00
2022-09-10T07:50:00.996Z,99.33
2022-09-10T07:52:29.051Z,99.37
2022-09-10T07:54:58.043Z,97.85
2022-09-10T07:57:26.135Z,98.88
2022-09-10T08:00:02.211Z,97.71
2022-09-10T08:02:33.665Z,96.88
2022-09-10T08:05:01.367Z,98.59
2022-09-10T08:07:29.520Z,99.48
2022-09-10T08:10:10.026Z,97.27
2022-09-10T08:12:39.758Z,96.06
2022-09-10T08:15:09.542Z,95.25
2022-09-10T08:17:38.961Z,95.17
2022-09-10T08:20:08.855Z,94.34
2022-09-10T08:22:36.220Z,94.30
2022-09-10T08:25:08.011Z,95.49
2022-09-10T08:27:38.704Z,96.02
2022-09-10T08:30:06.953Z,94.85
2022-09-10T08:32:36.336Z,95.30
2022-09-10T08:35:06.101Z,91.82
2022-09-10T08:37:34.124Z,91.59
2022-09-10T08:40:05.920Z,93.08
2022-09-10T08:42:41.746Z,93.18
2022-09-10T08:45:16.064Z,90.90
2022-09-10T08:48:02.733Z,91.67
2022-09-10T08:50:40.442Z,89.17
2022-09-10T08:53:53.809Z,87.77
2022-09-10T08:56:23.578Z,89.09
2022-09-10T08:59:25.792Z,88.59
2022-09-10T09:01:59.742Z,90.37
2022-09-10T09:04:44.329Z,87.97
2022-09-10T09:07:20.302Z,88.46
2022-09-10T09:09:51.776Z,88.23
2022-09-10T09:12:45.985Z,85.03
2022-09-10T09:15:30.677Z,85.71
2022-09-10T09:18:31.804Z,88.12
2022-09-10T09:21:10.613Z,85.58
2022-09-10T09:24:13.510Z,85.68
2022-09-10T09:26:47.661Z,88.12
2022-09-10T09:29:19.776Z,86.80
2022-09-10T09:31:52.412Z,85.73
2022-09-10T09:34:28.275Z,81.85
2022-09-10T09:37:01.131Z,81.88
2022-09-10T09:39:45.931Z,82.19
2022-09-10T09:42:30.272Z,85.26
2022-09-10T09:45:07.874Z,85.77
2022-09-10T09:47:36.976Z,84.69
2022-09-10T09:50:04.210Z,84.54
2022-09-10T09:52:32.592Z,84.24
2022-09-10T09:55:14.764Z,82.85
2022-09-10T09:57:43.205Z,83.06
2022-09-10T10:00:36.823Z,82.65
2022-09-10T10:03:18.740Z,79.90
2022-09-10T10:05:47.130Z,78.94
2022-09-10T10:08:33.832Z,77.15
2022-09-10T10:11:01.299Z,77.30
2022-09-10T10:13:51.791Z,76.16
2022-09-10T10:16:27.236Z,74.08
2022-09-10T10:19:00.308Z,73.56
2022-09-10T10:21:33.102Z,71.24
2022-09-10T10:24:01.390Z,69.60
2022-09-10T10:26:35.210Z,70.12
2022-09-10T10:29:06.761Z,66.51
2022-09-10T10:31:43.362Z,64.15
2022-09-10T10:34:15.531Z,59.57
2022-09-10T10:37:03.625Z,57.79
2022-09-10T10:39:48.793Z,54.56
2022-09-10T10:42:23.685Z,55.05
2022-09-10T10:45:16.651Z,53.41
2022-09-10T10:48:04.082Z,57.72
2022-09-10T10:50:36.355Z,59.43
2022-09-10T10:53:22.863Z,62.48
2022-09-10T10:56:26.271Z,63.20
2022-09-10T10:59:09.841Z,62.40
2022-09-10T11:01:54.162Z,64.05
2022-09-10T11:04:51.919Z,65.80
2022-09-10T11:07:29.781Z,65.53
2022-09-10T11:10:46.710Z,64.21
2022-09-10T11:13:21.319Z,61.67
2022-09-10T11:16:01.898Z,60.37
2022-09-10T11:18:54.342Z,60.42
2022-09-10T11:21:40.582Z,57.80
2022-09-10T11:24:17.424Z,58.18
2022-09-10T11:26:51.384Z,57.56
2022-09-10T11:29:57.218Z,57.85
2022-09-10T11:32:34.891Z,60.27
2022-09-10T11:35:48.450Z,59.79
2022-09-10T11:38:29.757Z,56.23
2022-09-10T11:41:18.799Z,56.02
2022-09-10T11:44:36.443Z,53.04
2022-09-10T11:47:31.810Z,52.82
2022-09-10T11:50:11.937Z,50.12
2022-09-10T11:52:41.045Z,49.56
2022-09-10T11:55:16.181Z,50.11
2022-09-10T11:58:02.708Z,52.20
2022-09-10T12:00:35.804Z,54.87
2022-09-10T12:03:22.460Z,57.49
2022-09-10T12:06:29.661Z,57.99
2022-09-10T12:09:05.540Z,55.97
2022-09-10T12:11:57.715Z,56.79
2022-09-10T12:14:25.745Z,55.80
2022-09-10T12:16:58.539Z,59.77
2022-09-10T12:19:31.682Z,61.54
2022-09-10T12:22:04.761Z,55.60
2022-09-10T12:24:39.696Z,55.77
2022-09-10T12:27:19.061Z,54.69
2022-09-10T12:29:46.184Z,54.13
2022-09-10T12:32:28.867Z,54.21
2022-09-10T12:35:38.290Z,55.40
2022-09-10T12:38:49.002Z,53.62
2022-09-10T12:41:24.855Z,53.21
2022-09-10T12:43:57.614Z,52.93
2022-09-10T12:46:27.372Z,54.20
2022-09-10T12:48:55.654Z,55.54
2022-09-10T12:51:46.503Z,55.87
2022-09-10T12:54:20.614Z,51.68
2022-09-10T12:57:52.107Z,51.28
2022-09-10T13:00:26.308Z,52.61
2022-09-10T13:03:11.641Z,54.49
2022-09-10T13:05:44.504Z,55.25
2022-09-10T13:08:51.111Z,57.74
2022-09-10T13:11:25.101Z,59.48
2022-09-10T13:13:59.486Z,61.43
2022-09-10T13:16:29.716Z,60.33
2022-09-10T13:19:19.812Z,59.02
2022-09-10T13:21:51.296Z,61.24
2022-09-10T13:24:38.777Z,61.17
2022-09-10T13:27:44.323Z,63.23
2022-09-10T13:30:11.426Z,65.53
2022-09-10T13:33:02.804Z,65.21
2022-09-10T13:35:56.090Z,67.18
2022-09-10T13:39:05.531Z,68.33
2022-09-10T13:41:44.455Z,69.48
2022-09-10T13:44:45.690Z,67.83
2022-09-10T13:47:24.535Z,69.04
2022-09-10T13:50:14.523Z,70.63
2022-09-10T13:52:45.623Z,66.12
2022-09-10T13:55:32.768Z,64.64
2022-09-10T13:58:09.614Z,64.35
2022-09-10T14:00:50.353Z,62.91
2022-09-10T14:03:23.138Z,62.93
2022-09-10T14:05:54.625Z,62.48
2022-09-10T14:08:34.410Z,64.87
2022-09-10T14:11:01.465Z,63.68
2022-09-10T14:13:56.574Z,63.10
2022-09-10T14:16:30.432Z,62.70
2022-09-10T14:19:02.148Z,61.41
2022-09-10T14:21:29.738Z,60.19
2022-09-10T14:24:02.084Z,59.41
2022-09-10T14:26:33.800Z,57.56
2022-09-10T14:29:21.217Z,57.34
2022-09-10T14:31:48.993Z,55.31
2022-09-10T14:34:32.556Z,54.16
2022-09-10T14:37:38.444Z,55.70
2022-09-10T14:40:17.771Z,53.36
2022-09-10T14:42:49.154Z,51.92
2022-09-10T14:45:38.162Z,49.02
2022-09-10T14:48:41.365Z,47.80
2022-09-10T14:51:25.927Z,46.46
2022-09-10T14:53:59.304Z,47.19
2022-09-10T14:56:39.590Z,48.98
2022-09-10T14:59:18.500Z,50.78
2022-09-10T15:01:48.780Z,51.16
2022-09-10T15:04:19.746Z,50.79
2022-09-10T15:06:47.919Z,51.43
2022-09-10T15:09:17.848Z,52.07
2022-09-10T15:12:07.862Z,55.74
2022-09-10T15:14:37.161Z,59.29
2022-09-10T15:17:06.249Z,60.92
2022-09-10T15:19:39.294Z,62.00
2022-09-10T15:22:06.356Z,62.63
2022-09-10T15:24:42.754Z,63.12
2022-09-10T15:27:22.022Z,61.19
2022-09-10T15:29:51.351Z,59.29
2022-09-10T15:32:19.497Z,61.47
2022-09-10T15:34:46.627Z,62.54
2022-09-10T15:37:15.822Z,62.06
2022-09-10T15:39:51.653Z,61.52
2022-09-10T15:42:18.808Z,60.40
2022-09-10T15:44:53.201Z,59.79
2022-09-10T15:47:21.220Z,59.75
2022-09-10T15:49:53.117Z,58.75
2022-09-10T15:52:20.201Z,57.72
2022-09-10T15:54:48.400Z,55.70
2022-09-10T15:57:17.405Z,55.24
2022-09-10T15:59:50.623Z,55.36
2022-09-10T16:02:18.717Z,56.44
2022-09-10T16:04:46.742Z,58.59
2022-09-10T16:07:14.739Z,60.98
2022-09-10T16:09:43.818Z,64.11
2022-09-10T16:12:12.805Z,65.73
2022-09-10T16:14:40.975Z,65.91
2022-09-10T16:17:15.790Z,66.36
2022-09-10T16:19:51.697Z,67.14
2022-09-10T16:22:20.807Z,69.41
2022-09-10T16:24:53.007Z,71.89
2022-09-10T16:27:21.031Z,72.73
2022-09-10T16:29:50.597Z,74.53
2022-09-10T16:32:18.631Z,76.26
2022-09-10T16:34:47.658Z,77.46
2022-09-10T16:37:17.610Z,77.62
2022-09-10T16:39:44.874Z,77.47
2022-09-10T16:42:11.925Z,77.75
2022-09-10T16:44:39.612Z,78.65
2022-09-10T16:47:16.933Z,80.36
2022-09-10T16:49:45.139Z,81.90
2022-09-10T16:52:15.349Z,82.80
2022-09-10T16:54:48.663Z,82.13
2022-09-10T16:57:39.343Z,81.03
2022-09-10T17:00:10.633Z,81.06
2022-09-10T17:02:41.265Z,82.44
2022-09-10T17:05:09.997Z,82.77
2022-09-10T17:07:42.803Z,83.04
2022-09-10T17:10:10.419Z,84.47
2022-09-10T17:12:43.991Z,85.48
2022-09-10T17:15:14.291Z,86.50
2022-09-10T17:17:42.550Z,86.56
2022-09-10T17:20:11.814Z,85.71
2022-09-10T17:22:39.787Z,87.35
2022-09-10T17:25:07.110Z,88.79
2022-09-10T17:27:36.179Z,89.73
2022-09-10T17:30:03.416Z,89.05
2022-09-10T17:32:34.674Z,87.83
2022-09-10T17:35:06.242Z,87.24
2022-09-10T17:37:41.644Z,86.76
2022-09-10T17:40:49.445Z,86.19
2022-09-10T17:43:25.510Z,85.76
2022-09-10T17:46:05.863Z,86.38
2022-09-10T17:48:49.642Z,85.10
2022-09-10T17:51:26.421Z,86.28
2022-09-10T17:53:55.513Z,86.13
2022-09-10T17:56:26.736Z,86.27
2022-09-10T17:59:02.852Z,86.75
2022-09-10T18:01:39.273Z,86.31
2022-09-10T18:04:29.452Z,86.81
2022-09-10T18:07:05.548Z,88.10
2022-09-10T18:09:33.684Z,88.48
2022-09-10T18:12:02.517Z,87.85
2022-09-10T18:14:30.028Z,88.89
2022-09-10T18:16:59.068Z,90.54
2022-09-10T18:19:27.138Z,90.15
2022-09-10T18:22:02.609Z,89.42
2022-09-10T18:25:13.464Z,90.15
2022-09-10T18:27:54.101Z,90.27
2022-09-10T18:30:22.621Z,90.42
2022-09-10T18:32:53.040Z,91.30
2022-09-10T18:35:21.004Z,92.63
2022-09-10T18:37:52.383Z,92.79
2022-09-10T18:40:20.137Z,93.12
2022-09-10T18:43:02.803Z,93.16
2022-09-10T18:45:38.478Z,91.91
2022-09-10T18:48:17.470Z,92.24
2022-09-10T18:50:52.960Z,91.84
2022-09-10T18:53:23.835Z,91.82
2022-09-10T18:55:56.355Z,91.85
2022-09-10T18:58:25.763Z,91.55
2022-09-10T19:00:58.539Z,91.37
2022-09-10T19:03:46.945Z,90.68
2022-09-10T19:06:23.643Z,90.44
2022-09-10T19:09:05.524Z,91.66
2022-09-10T19:11:49.759Z,91.71
2022-09-10T19:14:22.701Z,91.07
2022-09-10T19:16:51.906Z,90.39
2022-09-10T19:19:32.493Z,90.27
2022-09-10T19:22:11.180Z,90.53
2022-09-10T19:24:55.021Z,90.79
2022-09-10T19:27:24.817Z,91.16
2022-09-10T19:29:59.279Z,91.70
2022-09-10T19:32:50.979Z,91.98
2022-09-10T19:35:36.142Z,91.58
2022-09-10T19:38:21.074Z,91.54
2022-09-10T19:40:51.835Z,93.52
2022-09-10T19:43:35.072Z,96.06
2022-09-10T19:46:08.359Z,97.08
2022-09-10T19:49:13.787Z,96.67
2022-09-10T19:51:57.599Z,97.16
2022-09-10T19:54:28.818Z,98.18
2022-09-10T19:57:07.471Z,99.29
2022-09-10T19:59:41.763Z,99.70
2022-09-10T20:02:13.782Z,100.00
2022-09-10T20:05:09.598Z,100.00
2022-09-10T20:07:50.779Z,100.00
2022-09-10T20:10:18.286Z,100.00
2022-09-10T20:12:45.800Z,100.00
2022-09-10T20:15:25.695Z,100.00
2022-09-10T20:17:53.378Z,100.00
2022-09-10T20:20:21.863Z,100.00
2022-09-10T20:22:50.942Z,100.00
2022-09-10T20:26:03.447Z,100.00
2022-09-10T20:28:31.515Z,100.00
2022-09-10T20:30:59.777Z,100.00
2022-09-10T20:33:37.853Z,100.00
2022-09-10T20:36:08.991Z,100.00
2022-09-10T20:38:44.409Z,100.00
2022-09-10T20:41:17.454Z,100.00
2022-09-10T20:43:54.535Z,100.00
2022-09-10T20:46:23.130Z,100.00
2022-09-10T20:49:21.958Z,99.89
2022-09-10T20:51:50.043Z,99.74
2022-09-10T20:54:35.598Z,100.00
2022-09-10T20:57:02.643Z,100.00
2022-09-10T20:59:31.025Z,100.00
2022-09-10T21:01:59.284Z,100.00
2022-09-10T21:04:43.809Z,100.00
2022-09-10T21:08:15.217Z,100.00
2022-09-10T21:10:44.398Z,100.00
2022-09-10T21:13:17.803Z,100.00
2022-09-10T21:15:47.933Z,100.00
2022-09-10T21:18:50.835Z,100.00
2022-09-10T21:21:29.281Z,100.00
2022-09-10T21:24:10.755Z,100.00
2022-09-10T21:26:46.583Z,100.00
2022-09-10T21:29:20.236Z,100.00
2022-09-10T21:31:48.250Z,100.00
2022-09-10T21:34:17.749Z,99.92
2022-09-10T21:37:14.379Z,99.93
2022-09-10T21:39:45.441Z,100.00
2022-09-10T21:42:12.559Z,100.00
2022-09-10T21:44:39.642Z,100.00
2022-09-10T21:47:14.944Z,100.00
2022-09-10T21:49:51.371Z,100.00
2022-09-10T21:52:55.632Z,100.00
2022-09-10T21:55:32.720Z,100.00
2022-09-10T21:58:11.222Z,100.00
2022-09-10T22:00:38.371Z,100.00
2022-09-10T22:03:13.177Z,100.00
2022-09-10T22:05:41.159Z,100.00
2022-09-10T22:08:09.499Z,100.00
2022-09-10T22:10:44.161Z,100.00
2022-09-10T22:13:12.139Z,100.00
2022-09-10T22:15:45.359Z,100.00
2022-09-10T22:18:13.582Z,100.00
2022-09-10T22:21:11.607Z,100.00
2022-09-10T22:23:39.502Z,100.00
2022-09-10T22:26:08.176Z,100.00
2022-09-10T22:28:36.510Z,100.00
2022-09-10T22:31:12.019Z,100.00
2022-09-10T22:33:41.230Z,100.00
2022-09-10T22:36:16.153Z,100.00
2022-09-10T22:38:43.679Z,100.00
2022-09-10T22:41:29.757Z,100.00
2022-09-10T22:43:58.982Z,100.00
2022-09-10T22:46:27.527Z,100.00
2022-09-10T22:49:02.292Z,100.00
2022-09-10T22:51:35.232Z,100.00
2022-09-10T22:54:39.256Z,100.00
2022-09-10T22:57:13.350Z,100.00
2022-09-10T22:59:42.532Z,100.00
2022-09-10T23:02:17.539Z,100.00
2022-09-10T23:04:52.402Z,100.00
2022-09-10T23:07:20.512Z,100.00
2022-09-10T23:09:50.567Z,100.00
2022-09-10T23:12:22.498Z,100.00
2022-09-10T23:15:02.927Z,100.00
2022-09-10T23:17:30.873Z,100.00
2022-09-10T23:20:07.653Z,100.00
2022-09-10T23:22:35.596Z,100.00
2022-09-10T23:25:02.778Z,100.00
2022-09-10T23:27:45.217Z,100.00
2022-09-10T23:30:16.355Z,100.00
2022-09-10T23:32:44.242Z,100.00
2022-09-10T23:35:13.231Z,100.00
2022-09-10T23:37:44.491Z,100.00
2022-09-10T23:40:19.553Z,100.00
2022-09-10T23:42:57.943Z,100.00
2022-09-10T23:45:26.080Z,100.00
2022-09-10T23:48:05.349Z,100.00
2022-09-10T23:50:33.592Z,100.00
2022-09-10T23:53:06.431Z,100.00
2022-09-10T23:55:40.612Z,100.00
2022-09-10T23:58:30.238Z,100.00
